Time;durP1;ratioP1;P1;durP2;ratioP2;P2;SDS_P1;SDS_P2;PMS_P1;PMS_P2;Temp;Humidity;BMP_temperature;BMP_pressure;BME280_temperature;BME280_humidity;BME280_pressure;Samples;Min_cycle;Max_cycle;Signal;HPM_P1;HPM_P2
2022/06/03 00:00:03;;;;;;;13.38;6.30;;;;;;;6.99;100.00;154288.13;4978800;28;20026;-79
2022/06/03 00:02:33;;;;;;;16.55;6.82;;;;;;;6.92;100.00;154268.94;4942690;28;20082;-79
2022/06/03 00:05:20;;;;;;;15.77;6.43;;;;;;;6.90;100.00;154263.81;4954139;28;20085;-79
2022/06/03 00:08:27;;;;;;;11.48;6.38;;;;;;;6.82;100.00;154244.63;4943467;28;20074;-80
2022/06/03 00:11:12;;;;;;;14.48;7.38;;;;;;;6.75;100.00;154226.69;4951087;28;20145;-79
2022/06/03 00:13:55;;;;;;;15.82;7.38;;;;;;;6.69;100.00;154212.63;4936595;28;20502;-79
2022/06/03 00:16:20;;;;;;;;;;;;;;;6.69;100.00;154211.34;4953938;28;20038;-81
2022/06/03 00:19:04;;;;;;;16.52;6.82;;;;;;;6.64;100.00;154199.81;4971466;28;20008;-80
2022/06/03 00:21:45;;;;;;;11.13;7.18;;;;;;;6.63;100.00;154198.53;4971132;28;20035;-80
2022/06/03 00:24:24;;;;;;;13.75;7.22;;;;;;;6.61;100.00;154193.44;4953518;28;20046;-79
2022/06/03 00:27:06;;;;;;;9.85;5.85;;;;;;;6.67;100.00;154206.19;4970624;28;20037;-79
2022/06/03 00:29:50;;;;;;;18.23;6.60;;;;;;;6.68;100.00;154210.03;4930637;28;20051;-80
2022/06/03 00:32:22;;;;;;;12.77;6.82;;;;;;;6.69;100.00;154211.34;4964696;28;20042;-78
2022/06/03 00:34:56;;;;;;;10.02;6.68;;;;;;;6.58;100.00;154185.72;4965862;28;20069;-80
2022/06/03 00:37:28;;;;;;;14.50;7.00;;;;;;;6.55;100.00;154178.03;4940249;28;20030;-79
2022/06/03 00:39:54;;;;;;;13.57;7.23;;;;;;;6.58;100.00;154185.72;4936825;28;20130;-77
2022/06/03 00:42:43;;;;;;;12.68;6.50;;;;;;;6.59;100.00;154187.00;4943414;28;20047;-78
2022/06/03 00:45:43;;;;;;;11.27;6.15;;;;;;;6.59;100.00;154187.00;4965716;28;20462;-79
2022/06/03 00:48:36;;;;;;;12.48;6.30;;;;;;;6.58;100.00;154185.72;4951689;28;20843;-79
2022/06/03 00:51:11;;;;;;;11.93;6.80;;;;;;;6.52;100.00;154170.38;4937978;28;20083;-80
2022/06/03 00:53:48;;;;;;;11.98;6.85;;;;;;;6.55;100.00;154176.78;4968572;28;20433;-80
2022/06/03 00:56:31;;;;;;;11.07;6.60;;;;;;;6.49;100.00;154162.69;4946473;28;20845;-80
2022/06/03 00:59:16;;;;;;;11.43;7.55;;;;;;;6.40;100.00;154140.97;4933276;28;20041;-79
2022/06/03 01:02:06;;;;;;;12.43;7.88;;;;;;;6.52;100.00;154169.13;4956370;28;20035;-79
2022/06/03 01:04:32;;;;;;;18.15;7.95;;;;;;;6.54;100.00;154175.50;4948022;28;20625;-79
2022/06/03 01:07:36;;;;;;;13.80;7.47;;;;;;;6.50;100.00;154165.28;4931872;28;20039;-77
2022/06/03 01:10:19;;;;;;;13.35;7.70;;;;;;;6.38;100.00;154135.81;4943419;28;20043;-79
2022/06/03 01:13:24;;;;;;;12.73;8.10;;;;;;;6.37;100.00;154132.03;4947914;28;20046;-78
2022/06/03 01:16:08;;;;;;;15.68;8.32;;;;;;;6.39;100.00;154137.13;4958084;28;20046;-79
2022/06/03 01:18:46;;;;;;;15.15;9.18;;;;;;;6.38;100.00;154135.81;4968686;28;20089;-79
2022/06/03 01:21:35;;;;;;;15.70;9.77;;;;;;;6.56;100.00;154180.63;4953927;28;20038;-80
2022/06/03 01:24:22;;;;;;;15.48;10.15;;;;;;;6.64;100.00;154199.81;4968376;28;20043;-80
2022/06/03 01:27:06;;;;;;;16.10;10.82;;;;;;;6.63;100.00;154198.53;4953846;28;20027;-79
2022/06/03 01:29:47;;;;;;;18.60;10.95;;;;;;;6.56;100.00;154180.63;4966388;28;20662;-78
2022/06/03 01:32:31;;;;;;;15.68;10.90;;;;;;;6.46;100.00;154155.06;4953755;28;20526;-78
2022/06/03 01:35:34;;;;;;;18.73;11.80;;;;;;;6.37;100.00;154132.03;4944175;28;20046;-79
2022/06/03 01:38:12;;;;;;;19.13;11.07;;;;;;;6.32;100.00;154120.47;4930166;28;20409;-80
2022/06/03 01:40:41;;;;;;;18.13;12.18;;;;;;;6.29;100.00;154111.50;4934807;28;20042;-78
2022/06/03 01:43:34;;;;;;;18.80;10.70;;;;;;;6.22;100.00;154094.91;4963662;28;20043;-78
2022/06/03 01:48:57;;;;;;;20.92;12.88;;;;;;;6.14;100.00;154074.41;4935871;28;20050;-79
2022/06/03 01:51:40;;;;;;;21.70;13.65;;;;;;;6.08;100.00;154059.06;4943766;28;20054;-81
2022/06/03 01:54:43;;;;;;;17.33;14.02;;;;;;;6.02;100.00;154045.00;4947456;28;20039;-82
2022/06/03 01:57:42;;;;;;;23.48;12.98;;;;;;;6.00;100.00;154041.16;4935354;28;20031;-82
2022/06/03 02:00:24;;;;;;;19.52;13.55;;;;;;;5.93;100.00;154021.94;4940808;28;20050;-81
2022/06/03 02:03:30;;;;;;;18.60;13.20;;;;;;;5.83;100.00;153997.63;4944289;28;20038;-81
2022/06/03 02:05:59;;;;;;;16.02;12.75;;;;;;;5.78;100.00;153984.84;4939902;28;20053;-81
2022/06/03 02:08:40;;;;;;;21.30;12.93;;;;;;;5.80;100.00;153991.25;4948759;28;20038;-81
2022/06/03 02:11:36;;;;;;;15.75;11.98;;;;;;;5.82;100.00;153996.38;4973044;28;20502;-79
2022/06/03 02:14:23;;;;;;;21.25;12.75;;;;;;;5.76;100.00;153981.00;4932706;28;20125;-82
2022/06/03 02:16:59;;;;;;;21.63;12.25;;;;;;;5.75;100.00;153977.19;4938209;28;20110;-82
2022/06/03 02:19:34;;;;;;;16.13;12.30;;;;;;;5.72;100.00;153969.50;4936341;28;20042;-81
2022/06/03 02:22:13;;;;;;;20.75;13.23;;;;;;;5.61;100.00;153943.94;4950382;28;20077;-83
2022/06/03 02:25:07;;;;;;;19.95;14.65;;;;;;;5.52;100.00;153919.63;4955293;28;20421;-83
2022/06/03 02:27:49;;;;;;;18.00;13.90;;;;;;;5.52;100.00;153920.94;4936860;28;20047;-81
2022/06/03 02:30:40;;;;;;;19.52;13.65;;;;;;;5.55;100.00;153928.56;4939647;28;20039;-81
2022/06/03 02:33:28;;;;;;;15.38;12.98;;;;;;;5.58;100.00;153936.25;4937948;28;20034;-80
2022/06/03 02:36:36;;;;;;;14.63;12.18;;;;;;;5.63;100.00;153949.06;4946481;28;20039;-81
2022/06/03 02:39:39;;;;;;;15.38;13.15;;;;;;;5.63;100.00;153949.06;4934294;29;20039;-82
2022/06/03 02:42:10;;;;;;;17.17;14.13;;;;;;;5.61;100.00;153943.94;4941274;28;20083;-80
2022/06/03 02:45:00;;;;;;;18.63;14.52;;;;;;;5.57;100.00;153932.41;4934191;28;20502;-82
2022/06/03 02:47:45;;;;;;;18.77;15.18;;;;;;;5.50;100.00;153915.81;4931354;28;20482;-81
2022/06/03 02:50:22;;;;;;;22.02;14.32;;;;;;;5.54;100.00;153924.72;4934688;28;20046;-83
2022/06/03 02:53:35;;;;;;;19.83;14.43;;;;;;;5.51;100.00;153918.34;4937678;28;20458;-77
2022/06/03 02:56:34;;;;;;;21.23;15.05;;;;;;;5.54;100.00;153924.72;4967779;28;20065;-81
2022/06/03 02:59:26;;;;;;;22.17;14.75;;;;;;;5.56;100.00;153929.88;4944196;28;20041;-82
2022/06/03 03:02:09;;;;;;;19.15;13.98;;;;;;;5.54;100.00;153924.72;4949063;28;20042;-81
2022/06/03 03:04:48;;;;;;;18.40;13.55;;;;;;;5.52;100.00;153920.94;4949745;28;20043;-80
2022/06/03 03:07:40;;;;;;;19.25;13.20;;;;;;;5.49;100.00;153913.25;4938590;28;20145;-82
2022/06/03 03:10:25;;;;;;;18.52;12.23;;;;;;;5.45;100.00;153904.28;4937621;28;20500;-82
2022/06/03 03:13:14;;;;;;;16.60;11.73;;;;;;;5.48;100.00;153910.66;4940011;28;20034;-79
2022/06/03 03:16:10;;;;;;;20.67;12.07;;;;;;;5.42;100.00;153895.31;4950545;28;20077;-80
2022/06/03 03:18:47;;;;;;;22.38;12.13;;;;;;;5.44;100.00;153900.44;4934085;28;20131;-81
2022/06/03 03:21:44;;;;;;;18.10;11.73;;;;;;;5.50;100.00;153915.81;4928523;28;20065;-80
2022/06/03 03:24:29;;;;;;;20.95;12.93;;;;;;;5.46;100.00;153906.88;4937231;28;20062;-79
2022/06/03 03:27:15;;;;;;;20.17;13.05;;;;;;;5.55;100.00;153927.31;4952131;28;20117;-81
2022/06/03 03:30:01;;;;;;;25.58;14.65;;;;;;;5.65;100.00;153952.84;4932118;28;20379;-81
2022/06/03 03:33:04;;;;;;;22.08;15.32;;;;;;;5.77;100.00;153983.56;4940096;28;20053;-84
2022/06/03 03:36:01;;;;;;;25.15;15.40;;;;;;;5.79;100.00;153988.69;4938977;28;20553;-82
2022/06/03 03:39:01;;;;;;;17.98;13.75;;;;;;;5.87;100.00;154007.88;4951437;28;20418;-82
2022/06/03 03:41:42;;;;;;;22.77;14.18;;;;;;;5.92;100.00;154019.41;4933199;28;20050;-80
2022/06/03 03:44:26;;;;;;;14.82;12.70;;;;;;;5.97;100.00;154032.19;4939518;28;20521;-81
2022/06/03 03:46:58;;;;;;;15.35;12.25;;;;;;;6.00;100.00;154041.16;4942945;28;20041;-81
2022/06/03 03:49:55;;;;;;;14.18;12.10;;;;;;;6.02;100.00;154046.28;4928886;28;20043;-83
2022/06/03 03:52:58;;;;;;;13.90;12.40;;;;;;;6.08;100.00;154060.34;4949319;28;20555;-81
2022/06/03 03:55:52;;;;;;;13.88;12.38;;;;;;;6.09;100.00;154062.91;4936903;28;20133;-83
2022/06/03 03:58:39;;;;;;;22.05;12.70;;;;;;;6.16;100.00;154079.53;4949686;28;20038;-82
2022/06/03 04:01:42;;;;;;;15.35;12.57;;;;;;;6.26;100.00;154103.88;4943719;28;20034;-81
2022/06/03 04:04:39;;;;;;;22.63;13.90;;;;;;;6.21;100.00;154093.59;4933625;28;20035;-80
2022/06/03 04:07:07;;;;;;;20.00;13.50;;;;;;;6.20;100.00;154089.78;4938832;28;20086;-82
2022/06/03 04:09:55;;;;;;;13.30;11.90;;;;;;;6.18;100.00;154085.94;4948014;28;20126;-82
2022/06/03 04:12:49;;;;;;;16.38;13.57;;;;;;;6.29;100.00;154112.84;4943726;28;20046;-81
2022/06/03 04:15:56;;;;;;;16.52;14.73;;;;;;;6.43;100.00;154148.63;4935131;28;20042;-82
2022/06/03 04:18:37;;;;;;;19.35;13.95;;;;;;;6.68;100.00;154208.78;4945041;28;20490;-80
2022/06/03 04:21:38;;;;;;;24.45;13.30;;;;;;;6.80;100.00;154239.50;4939326;28;20035;-82
2022/06/03 04:24:25;;;;;;;17.35;15.48;;;;;;;6.86;100.00;154254.84;4911550;28;20432;-80
2022/06/03 04:27:12;;;;;;;18.73;12.68;;;;;;;6.93;100.00;154272.78;4951864;28;20039;-81
2022/06/03 04:30:04;;;;;;;16.77;11.93;;;;;;;6.95;100.00;154276.56;4932859;28;20038;-79
2022/06/03 04:32:44;;;;;;;28.92;11.30;;;;;;;6.91;100.00;154266.34;4929841;28;20130;-80
2022/06/03 04:35:54;;;;;;;13.18;11.88;;;;;;;6.90;100.00;154263.81;4934743;28;20541;-82
2022/06/03 04:38:45;;;;;;;13.90;12.25;;;;;;;7.02;100.00;154295.78;4941668;28;20382;-79
2022/06/03 04:41:41;;;;;;;14.18;12.73;;;;;;;7.07;100.00;154307.31;4934163;28;20047;-81
2022/06/03 04:44:33;;;;;;;19.65;11.07;;;;;;;7.11;100.00;154316.28;4942145;28;20063;-80
2022/06/03 04:47:18;;;;;;;15.60;11.07;;;;;;;7.11;100.00;154316.28;4942219;28;20043;-80
2022/06/03 04:50:25;;;;;;;16.00;10.95;;;;;;;7.12;100.00;154320.13;4954322;28;20101;-80
2022/06/03 04:53:18;;;;;;;16.75;11.65;;;;;;;7.15;100.00;154327.78;4935359;29;20038;-80
2022/06/03 04:56:12;;;;;;;13.77;10.98;;;;;;;7.19;100.00;154338.00;4945314;28;20037;-81
2022/06/03 04:59:21;;;;;;;14.88;11.70;;;;;;;7.31;100.00;154367.50;4961668;28;20031;-80
2022/06/03 05:02:21;;;;;;;14.23;11.85;;;;;;;7.37;100.00;154381.56;4947942;28;20074;-79
2022/06/03 05:05:28;;;;;;;17.15;11.13;;;;;;;7.48;100.00;154409.75;4932346;28;20178;-82
2022/06/03 05:08:12;;;;;;;20.48;12.88;;;;;;;7.70;100.00;154464.78;4948405;28;20039;-81
2022/06/03 05:11:20;;;;;;;17.55;13.48;;;;;;;7.76;100.00;154478.84;4930396;28;20078;-83
2022/06/03 05:14:23;;;;;;;15.68;12.20;;;;;;;7.87;100.00;154507.03;4948139;28;20042;-81
2022/06/03 05:16:48;;;;;;;;;;;;;;;8.10;100.00;154564.69;4950798;28;20027;-80
2022/06/03 05:19:46;;;;;;;20.92;15.52;;;;;;;8.36;100.00;154628.72;4940235;28;19929;-86
2022/06/03 05:22:45;;;;;;;23.40;14.85;;;;;;;8.61;100.00;154691.56;4947293;28;20433;-80
2022/06/03 05:25:48;;;;;;;18.17;13.65;;;;;;;8.77;100.00;154732.53;4936722;28;20045;-81
2022/06/03 05:28:29;;;;;;;;;;;;;;;8.94;100.00;154774.84;4934559;28;20272;-82
2022/06/03 05:31:05;;;;;;;22.52;13.15;;;;;;;9.18;100.00;154832.53;4959412;28;19914;-81
2022/06/03 05:34:10;;;;;;;21.33;13.60;;;;;;;9.30;100.00;154863.28;4946910;28;20061;-80
2022/06/03 05:37:09;;;;;;;19.63;13.15;;;;;;;9.48;100.00;154909.44;4924850;28;20046;-83
2022/06/03 05:39:59;;;;;;;19.95;12.45;;;;;;;9.63;100.00;154946.63;4913238;28;20065;-81
2022/06/03 05:43:09;;;;;;;19.08;12.15;;;;;;;9.74;100.00;154974.84;4958298;28;20039;-83
2022/06/03 05:46:02;;;;;;;17.23;11.35;;;;;;;9.93;100.00;155022.28;4915638;28;20077;-82
2022/06/03 05:48:38;;;;;;;16.58;11.15;;;;;;;10.03;100.00;155045.38;4930014;28;20039;-85
2022/06/03 05:51:13;;;;;;;18.08;11.57;;;;;;;10.11;100.00;155067.19;4920760;28;20042;-84
2022/06/03 05:53:59;;;;;;;18.13;11.02;;;;;;;10.28;100.00;155109.53;4939066;28;20051;-87
2022/06/03 05:56:40;;;;;;;18.48;11.32;;;;;;;10.46;100.00;155154.44;4947559;28;20062;-81
2022/06/03 05:59:40;;;;;;;19.92;10.40;;;;;;;10.59;100.00;155185.25;4944408;28;20042;-82
2022/06/03 06:02:40;;;;;;;22.73;9.68;;;;;;;10.62;100.00;155192.91;4951741;28;20039;-83
2022/06/03 06:05:25;;;;;;;17.58;9.48;;;;;;;10.82;100.00;155242.97;4954979;28;20050;-79
2022/06/03 06:08:21;;;;;;;19.48;9.65;;;;;;;10.93;100.00;155271.22;4980070;28;20038;-82
2022/06/03 06:11:08;;;;;;;13.75;8.38;;;;;;;11.05;100.00;155301.97;4938768;28;20058;-81
2022/06/03 06:14:00;;;;;;;16.77;9.55;;;;;;;11.23;100.00;155346.91;4953663;28;20075;-83
2022/06/03 06:16:32;;;;;;;17.02;9.45;;;;;;;11.29;100.00;155362.31;4933178;28;20104;-82
2022/06/03 06:19:07;;;;;;;17.58;8.38;;;;;;;11.38;100.00;155382.88;4954137;28;20130;-84
2022/06/03 06:21:54;;;;;;;18.55;8.52;;;;;;;11.57;100.00;155431.63;4936435;28;20094;-84
2022/06/03 06:24:19;;;;;;;15.13;7.75;;;;;;;11.71;100.00;155465.00;4944264;28;20039;-83
2022/06/03 06:27:25;;;;;;;13.60;7.90;;;;;;;11.74;100.00;155474.00;4952921;28;20047;-82
2022/06/03 06:30:04;;;;;;;13.77;7.00;;;;;;;11.92;100.00;155517.69;4939044;29;20114;-85
2022/06/03 06:33:00;;;;;;;12.98;7.43;;;;;;;12.01;100.00;155542.09;4948823;29;20067;-88
2022/06/03 06:36:00;;;;;;;12.98;7.80;;;;;;;12.11;100.00;155566.53;4958455;28;20532;-85
2022/06/03 06:39:01;;;;;;;12.52;8.00;;;;;;;12.31;100.00;155615.31;4951229;28;20074;-86
2022/06/03 06:41:40;;;;;;;14.10;6.85;;;;;;;12.42;100.00;155644.84;4963773;28;20035;-85
2022/06/03 06:44:10;;;;;;;15.05;6.88;;;;;;;12.47;100.00;155656.44;4954730;28;20046;-85
2022/06/03 06:47:00;;;;;;;13.05;7.65;;;;;;;12.65;100.00;155701.34;4942303;28;20027;-85
2022/06/03 06:49:29;;;;;;;11.82;6.30;;;;;;;12.70;100.00;155712.94;4943312;28;20058;-84
2022/06/03 06:52:28;;;;;;;13.48;7.22;;;;;;;12.77;100.00;155730.88;4935667;29;20070;-84
2022/06/03 06:55:15;;;;;;;14.77;8.25;;;;;;;12.82;100.00;155743.75;4949827;28;20048;-85
2022/06/03 06:57:46;;;;;;;16.45;8.07;;;;;;;12.83;100.00;155747.63;4956845;28;20038;-82
2022/06/03 07:00:27;;;;;;;13.77;8.45;;;;;;;13.10;100.00;155813.16;4941429;28;20042;-80
2022/06/03 07:02:59;;;;;;;12.77;7.50;;;;;;;13.18;100.00;155834.97;4946098;28;20035;-80
2022/06/03 07:05:46;;;;;;;15.55;7.95;;;;;;;13.38;100.00;155883.88;4935059;28;20042;-81
2022/06/03 07:08:20;;;;;;;15.27;7.93;;;;;;;13.56;100.00;155930.16;4947465;28;20035;-81
2022/06/03 07:10:54;;;;;;;11.20;7.07;;;;;;;13.68;100.00;155959.72;4945513;28;20042;-81
2022/06/03 07:13:40;;;;;;;13.63;7.50;;;;;;;13.80;100.00;155989.25;4943637;28;20494;-83
2022/06/03 07:16:05;;;;;;;13.02;7.22;;;;;;;13.97;100.00;156031.69;4934656;28;20057;-81
2022/06/03 07:21:39;;;;;;;13.40;6.57;;;;;;;13.99;100.00;156036.81;4951760;28;20043;-80
2022/06/03 07:24:17;;;;;;;11.30;6.13;;;;;;;13.88;100.00;156008.53;4926272;28;20038;-81
2022/06/03 07:26:51;;;;;;;9.77;4.65;;;;;;;14.00;100.00;156040.69;4934498;28;20043;-78
2022/06/03 07:29:31;;;;;;;9.00;5.15;;;;;;;14.15;97.82;156077.97;4932928;28;20486;-81
2022/06/03 07:32:10;;;;;;;7.65;3.53;;;;;;;14.24;95.88;156098.53;4963286;28;20045;-79
2022/06/03 07:34:54;;;;;;;9.32;3.58;;;;;;;14.38;95.46;156135.84;4943111;28;20045;-79
2022/06/03 07:37:38;;;;;;;8.82;4.32;;;;;;;14.36;94.72;156130.69;4931854;28;20429;-78
2022/06/03 07:40:24;;;;;;;5.47;3.00;;;;;;;14.48;90.17;156158.97;4972884;28;20612;-79
2022/06/03 07:43:00;;;;;;;4.70;3.20;;;;;;;14.72;88.41;156219.50;4932386;28;20035;-80
2022/06/03 07:45:36;;;;;;;8.98;3.92;;;;;;;15.03;90.25;156296.66;4945896;29;20122;-82
2022/06/03 07:48:11;;;;;;;10.70;4.35;;;;;;;14.96;89.42;156279.97;4940268;28;20118;-81
2022/06/03 07:50:45;;;;;;;5.93;3.78;;;;;;;14.97;87.56;156282.50;4933214;28;20034;-77
2022/06/03 07:53:32;;;;;;;8.18;3.10;;;;;;;15.06;83.71;156304.38;4930222;28;20039;-79
2022/06/03 07:55:59;;;;;;;5.95;2.80;;;;;;;15.13;81.14;156322.41;4947340;29;20118;-79
2022/06/03 07:58:28;;;;;;;7.88;3.08;;;;;;;15.23;80.84;156346.84;4942582;28;20038;-81
2022/06/03 08:00:54;;;;;;;8.15;3.83;;;;;;;15.29;82.01;156363.53;4954654;23;20070;-80
2022/06/03 08:03:23;;;;;;;5.80;2.97;;;;;;;15.36;79.77;156380.28;4931848;29;20039;-79
2022/06/03 08:06:02;;;;;;;9.52;2.80;;;;;;;15.62;76.98;156445.94;4935087;29;20049;-79
2022/06/03 08:11:15;;;;;;;6.70;3.08;;;;;;;15.83;78.82;156497.47;4954319;28;20429;-79
2022/06/03 08:13:44;;;;;;;8.55;3.17;;;;;;;16.00;79.49;156539.94;4953003;28;20046;-78
2022/06/03 08:16:26;;;;;;;6.60;2.90;;;;;;;15.81;76.54;156492.31;4951667;28;20126;-77
2022/06/03 08:18:57;;;;;;;7.70;3.53;;;;;;;15.93;76.84;156524.44;4934436;29;20034;-79
2022/06/03 08:21:31;;;;;;;8.10;3.28;;;;;;;15.97;77.00;156533.47;4950198;28;20038;-78
2022/06/03 08:23:58;;;;;;;8.43;2.60;;;;;;;16.20;69.16;156590.09;4949326;28;20031;-76
2022/06/03 08:26:26;;;;;;;7.50;2.30;;;;;;;16.25;73.38;156604.28;4934823;28;20047;-78
2022/06/03 08:29:01;;;;;;;4.40;1.83;;;;;;;16.30;67.06;156615.88;4929839;29;20089;-77
2022/06/03 08:31:30;;;;;;;3.70;2.17;;;;;;;16.39;72.93;156639.06;4927260;29;20561;-76
2022/06/03 08:34:00;;;;;;;7.22;2.35;;;;;;;16.70;70.51;156716.28;4927241;29;20457;-77
2022/06/03 08:36:31;;;;;;;5.32;2.17;;;;;;;16.95;67.88;156779.44;4932826;29;20047;-78
2022/06/03 08:39:09;;;;;;;5.50;1.70;;;;;;;16.88;69.93;156761.44;4955608;28;20058;-78
2022/06/03 08:42:08;;;;;;;3.58;2.30;;;;;;;16.89;67.96;156764.00;4953093;28;20039;-78
2022/06/03 08:45:03;;;;;;;3.00;1.75;;;;;;;16.79;70.07;156738.22;4943515;29;20055;-77
2022/06/03 08:47:50;;;;;;;6.90;2.13;;;;;;;16.97;69.93;156784.63;4941017;29;20031;-78
2022/06/03 08:50:41;;;;;;;4.68;2.00;;;;;;;17.16;72.76;156830.97;4930941;29;20506;-79
2022/06/03 08:53:19;;;;;;;9.50;2.45;;;;;;;17.26;71.35;156856.75;4937222;28;20034;-80
2022/06/03 08:55:49;;;;;;;7.20;2.40;;;;;;;17.22;72.42;156847.72;4946115;29;20035;-79
2022/06/03 08:58:45;;;;;;;3.90;2.15;;;;;;;17.43;74.21;156900.53;4932236;29;20042;-78
2022/06/03 09:01:25;;;;;;;4.22;2.30;;;;;;;17.64;73.13;156952.06;4933855;29;20518;-79
2022/06/03 09:03:51;;;;;;;6.00;2.45;;;;;;;17.58;73.98;156937.91;4944614;29;20042;-78
2022/06/03 09:06:42;;;;;;;6.18;2.17;;;;;;;17.78;71.88;156988.16;4945647;29;20039;-78
2022/06/03 09:09:30;;;;;;;3.42;2.15;;;;;;;18.18;74.08;157088.72;4952468;28;20031;-80
2022/06/03 09:12:09;;;;;;;5.68;2.13;;;;;;;18.26;68.88;157109.31;4947989;28;20039;-76
2022/06/03 09:14:34;;;;;;;7.70;2.30;;;;;;;18.27;69.97;157111.91;4950821;28;20047;-80
2022/06/03 09:17:08;;;;;;;7.60;2.58;;;;;;;18.30;68.82;157118.34;4926993;29;20084;-80
2022/06/03 09:19:44;;;;;;;4.78;2.00;;;;;;;18.18;70.03;157088.72;4941146;29;20054;-78
2022/06/03 09:22:15;;;;;;;6.60;1.98;;;;;;;18.41;71.77;157146.69;4946548;28;20118;-78
2022/06/03 09:24:42;;;;;;;3.03;1.90;;;;;;;18.53;71.67;157175.06;4952409;28;20031;-78
2022/06/03 09:27:10;;;;;;;5.70;2.15;;;;;;;18.59;70.56;157190.53;4925598;29;20051;-78
2022/06/03 09:29:38;;;;;;;4.35;2.60;;;;;;;18.77;69.43;157236.94;4948818;29;20445;-78
2022/06/03 09:32:06;;;;;;;5.78;2.20;;;;;;;18.86;69.37;157258.91;4912790;29;20083;-78
2022/06/03 09:34:43;;;;;;;3.40;1.60;;;;;;;18.87;69.46;157261.47;4951779;29;20031;-79
2022/06/03 09:37:16;;;;;;;5.72;2.15;;;;;;;19.01;72.15;157296.31;4930126;29;20047;-79
2022/06/03 09:39:44;;;;;;;7.13;1.95;;;;;;;19.33;70.63;157377.53;4962346;28;20039;-76
2022/06/03 09:42:12;;;;;;;5.55;1.95;;;;;;;19.24;68.83;157354.31;4929756;28;20066;-78
2022/06/03 09:44:40;;;;;;;4.20;1.88;;;;;;;19.21;71.18;157346.56;4943074;29;20160;-79
2022/06/03 09:47:09;;;;;;;5.75;1.80;;;;;;;18.76;68.51;157233.06;4930720;29;20042;-81
2022/06/03 09:49:35;;;;;;;7.47;2.25;;;;;;;18.88;67.07;157262.78;4936518;29;20042;-78
2022/06/03 09:52:03;;;;;;;6.00;1.95;;;;;;;19.00;65.12;157295.00;4928917;29;20031;-78
2022/06/03 09:54:33;;;;;;;3.33;1.05;;;;;;;19.10;61.98;157319.53;4928962;29;20046;-77
2022/06/03 09:57:14;;;;;;;3.15;1.40;;;;;;;19.54;65.13;157429.13;4935299;28;20030;-77
2022/06/03 09:59:59;;;;;;;3.15;1.70;;;;;;;19.57;58.32;157436.84;4936660;29;20035;-78
2022/06/03 10:02:26;;;;;;;4.03;1.60;;;;;;;19.68;61.04;157463.94;4944284;29;20123;-80
2022/06/03 10:04:53;;;;;;;2.00;1.30;;;;;;;19.77;61.79;157488.50;4926432;29;20140;-78
2022/06/03 10:07:19;;;;;;;3.80;1.25;;;;;;;19.65;53.65;157457.50;4927227;29;20039;-78
2022/06/03 10:15:38;;;;;;;5.10;1.17;;;;;;;19.95;50.67;157533.66;4943550;29;20039;-77
2022/06/03 10:18:28;;;;;;;1.92;1.10;;;;;;;19.97;50.95;157537.53;4952950;28;20035;-79
2022/06/03 10:20:57;;;;;;;5.22;1.00;;;;;;;20.22;51.95;157602.00;4913216;29;20039;-79
2022/06/03 10:23:28;;;;;;;2.35;0.73;;;;;;;20.65;53.88;157709.19;4951613;28;20039;-77
2022/06/03 10:25:59;;;;;;;2.90;0.90;;;;;;;20.66;51.28;157710.47;4924919;29;20032;-79
2022/06/03 10:28:27;;;;;;;2.25;0.90;;;;;;;20.65;47.34;157707.91;4946121;29;20035;-79
2022/06/03 10:31:14;;;;;;;4.68;1.00;;;;;;;20.67;47.70;157713.06;4953341;28;20582;-80
2022/06/03 10:33:52;;;;;;;3.08;1.00;;;;;;;21.03;48.51;157804.69;4945384;28;20039;-77
2022/06/03 10:36:17;;;;;;;1.95;0.82;;;;;;;21.27;54.81;157865.38;4920895;29;20826;-77
2022/06/03 10:38:48;;;;;;;2.45;0.90;;;;;;;21.35;47.63;157884.72;4956982;28;20058;-78
2022/06/03 10:41:14;;;;;;;4.35;0.70;;;;;;;21.34;44.19;157883.44;4955334;28;20073;-78
2022/06/03 10:43:41;;;;;;;1.88;0.60;;;;;;;21.57;44.89;157941.59;4954404;28;20077;-78
2022/06/03 10:46:15;;;;;;;1.33;0.70;;;;;;;21.48;44.97;157917.06;4942474;29;20043;-77
2022/06/03 10:48:42;;;;;;;3.05;1.00;;;;;;;21.27;44.64;157864.09;4945039;28;20479;-76
2022/06/03 11:01:06;;;;;;;2.28;0.95;;;;;;;21.23;49.19;157855.06;4945184;28;20036;-76
2022/06/03 11:02:29;;;;;;;1.35;0.55;;;;;;;21.41;41.38;157898.94;4948692;28;20042;-78
2022/06/03 11:05:27;;;;;;;1.10;0.57;;;;;;;21.48;39.79;157918.34;4949456;29;20031;-80
2022/06/03 11:08:10;;;;;;;2.35;0.70;;;;;;;21.38;43.61;157892.50;4953966;28;20046;-82
2022/06/03 11:10:43;;;;;;;3.40;0.80;;;;;;;21.54;44.31;157933.81;4948434;28;20073;-80
2022/06/03 11:13:11;;;;;;;5.40;1.10;;;;;;;21.80;42.89;157998.41;4948817;28;20524;-79
2022/06/03 11:15:43;;;;;;;1.05;0.60;;;;;;;21.96;43.44;158038.41;4898116;29;20036;-79
2022/06/03 11:18:25;;;;;;;1.58;0.68;;;;;;;22.37;40.74;158141.78;4949111;29;20490;-78
2022/06/03 11:20:53;;;;;;;2.35;0.73;;;;;;;22.36;39.60;158139.22;4950511;28;20052;-79
2022/06/03 11:23:20;;;;;;;1.33;0.60;;;;;;;22.46;42.02;158165.06;4947949;28;20495;-79
2022/06/03 11:25:52;;;;;;;0.63;0.47;;;;;;;22.49;37.39;158172.81;4926386;29;20137;-79
2022/06/03 11:28:24;;;;;;;4.30;0.47;;;;;;;22.47;37.36;158167.66;4954263;28;20055;-79
2022/06/03 11:30:59;;;;;;;3.03;0.50;;;;;;;22.57;37.61;158190.91;4919099;29;20043;-80
2022/06/03 11:33:36;;;;;;;2.38;0.60;;;;;;;22.56;38.45;158189.59;4948752;28;20031;-77
2022/06/03 11:36:04;;;;;;;2.30;0.80;;;;;;;22.67;41.43;158218.00;4953814;28;20034;-79
2022/06/03 11:38:34;;;;;;;4.40;0.75;;;;;;;22.57;39.68;158190.91;4956579;28;20054;-79
2022/06/03 11:41:05;;;;;;;1.02;0.50;;;;;;;22.42;39.40;158153.44;4940844;28;20046;-80
2022/06/03 11:43:35;;;;;;;0.85;0.50;;;;;;;22.44;39.84;158159.88;4931409;29;20560;-79
2022/06/03 11:46:12;;;;;;;1.85;0.68;;;;;;;22.24;41.97;158109.44;4948899;28;20065;-79
2022/06/03 11:48:40;;;;;;;3.53;0.80;;;;;;;22.28;39.56;158118.53;4944998;28;20023;-80
2022/06/03 11:51:08;;;;;;;1.27;0.70;;;;;;;22.45;40.95;158162.50;4928454;29;20039;-80
2022/06/03 11:53:39;;;;;;;0.80;0.50;;;;;;;22.70;40.23;158224.50;4953993;28;20106;-79
2022/06/03 11:56:08;;;;;;;1.17;0.63;;;;;;;22.76;37.52;158238.69;4950916;29;20031;-80
2022/06/03 11:58:43;;;;;;;0.80;0.52;;;;;;;22.70;37.36;158225.78;4955540;28;20039;-80
2022/06/03 12:01:19;;;;;;;1.58;0.75;;;;;;;22.81;38.29;158252.91;4923082;29;20102;-81
2022/06/03 12:04:16;;;;;;;1.38;0.90;;;;;;;22.90;36.63;158274.84;4933786;29;20409;-79
2022/06/03 12:07:23;;;;;;;1.23;0.55;;;;;;;22.67;37.79;158216.72;4938909;28;20078;-79
2022/06/03 12:09:56;;;;;;;1.77;0.63;;;;;;;22.97;36.70;158291.66;4856373;29;20420;-78
2022/06/03 12:15:31;;;;;;;1.50;0.40;;;;;;;23.07;35.23;158318.81;4957909;28;20998;-80
2022/06/03 12:18:06;;;;;;;2.40;0.68;;;;;;;22.84;33.50;158260.63;4953573;28;20066;-77
2022/06/03 12:20:31;;;;;;;1.30;0.50;;;;;;;22.82;36.13;158255.47;4949027;28;20174;-78
2022/06/03 12:23:18;;;;;;;0.75;0.60;;;;;;;23.02;34.39;158304.56;4948072;28;20107;-80
2022/06/03 12:25:53;;;;;;;2.55;0.70;;;;;;;23.03;35.06;158307.16;4956715;28;20434;-81
2022/06/03 12:28:45;;;;;;;1.98;0.80;;;;;;;22.94;34.51;158286.50;4939233;28;20035;-78
2022/06/03 12:31:22;;;;;;;1.60;0.70;;;;;;;23.38;34.14;158396.38;4947795;29;20047;-78
2022/06/03 12:34:01;;;;;;;0.95;0.52;;;;;;;23.41;33.97;158404.09;4943323;28;20442;-79
2022/06/03 12:36:37;;;;;;;1.50;0.50;;;;;;;23.51;35.53;158429.97;4951898;28;20143;-78
2022/06/03 12:39:08;;;;;;;1.60;0.52;;;;;;;23.50;33.83;158427.38;4964725;28;20026;-78
2022/06/03 12:41:46;;;;;;;1.30;0.73;;;;;;;23.69;36.56;158475.19;4955227;28;20047;-79
2022/06/03 12:44:36;;;;;;;1.65;0.68;;;;;;;24.13;33.61;158583.84;4941626;29;20059;-80
2022/06/03 12:47:34;;;;;;;1.63;0.60;;;;;;;24.20;35.33;158601.94;4937920;28;20058;-80
2022/06/03 12:50:05;;;;;;;0.80;0.40;;;;;;;24.73;36.78;158735.16;4938684;28;20054;-77